createdAt,value
2024-05-09T00:02:06.028Z,8.98
2024-05-09T00:04:55.271Z,8.94
2024-05-09T00:07:44.477Z,8.90
2024-05-09T00:10:37.368Z,8.84
2024-05-09T00:13:27.923Z,8.80
2024-05-09T00:16:19.634Z,8.77
2024-05-09T00:19:11.561Z,8.72
2024-05-09T00:22:01.498Z,8.69
2024-05-09T00:24:51.185Z,8.64
2024-05-09T00:27:41.610Z,8.60
2024-05-09T00:30:34.689Z,8.58
2024-05-09T00:33:28.905Z,8.57
2024-05-09T00:36:18.251Z,8.55
2024-05-09T00:39:07.321Z,8.52
2024-05-09T00:41:56.644Z,8.48
2024-05-09T00:44:48.873Z,8.44
2024-05-09T00:47:38.229Z,8.40
2024-05-09T00:50:36.127Z,8.35
2024-05-09T00:53:28.140Z,8.30
2024-05-09T00:56:19.292Z,8.25
2024-05-09T00:59:08.730Z,8.20
2024-05-09T01:01:58.144Z,8.16
2024-05-09T01:04:47.695Z,8.11
2024-05-09T01:07:40.552Z,8.08
2024-05-09T01:10:34.553Z,8.03
2024-05-09T01:13:25.278Z,7.96
2024-05-09T01:16:16.495Z,7.92
2024-05-09T01:19:08.176Z,7.87
2024-05-09T01:21:57.386Z,7.85
2024-05-09T01:24:49.741Z,7.83
2024-05-09T01:27:38.974Z,7.78
2024-05-09T01:30:34.402Z,7.74
2024-05-09T01:33:26.086Z,7.71
2024-05-09T01:36:15.494Z,7.65
2024-05-09T01:39:04.594Z,7.60
2024-05-09T01:41:56.835Z,7.55
2024-05-09T01:44:46.976Z,7.50
2024-05-09T01:47:37.120Z,7.41
2024-05-09T01:50:37.293Z,7.34
2024-05-09T01:53:30.294Z,7.27
2024-05-09T01:56:22.821Z,7.21
2024-05-09T01:59:15.151Z,7.17
2024-05-09T02:02:05.404Z,7.12
2024-05-09T02:04:54.695Z,7.08
2024-05-09T02:07:44.274Z,7.04
2024-05-09T02:10:36.607Z,6.99
2024-05-09T02:13:26.078Z,6.96
2024-05-09T02:16:18.760Z,6.92
2024-05-09T02:19:08.441Z,6.91
2024-05-09T02:21:57.797Z,6.85
2024-05-09T02:24:47.060Z,6.80
2024-05-09T02:27:36.473Z,6.75
2024-05-09T02:30:35.729Z,6.68
2024-05-09T02:33:32.498Z,6.63
2024-05-09T02:36:22.579Z,6.57
2024-05-09T02:39:09.366Z,6.55
2024-05-09T02:41:59.160Z,6.49
2024-05-09T02:44:45.777Z,6.45
2024-05-09T02:47:35.244Z,6.40
2024-05-09T02:50:33.561Z,6.34
2024-05-09T02:53:27.816Z,6.32
2024-05-09T02:56:14.512Z,6.29
2024-05-09T02:59:04.113Z,6.25
2024-05-09T03:01:50.948Z,6.23
2024-05-09T03:04:41.518Z,6.21
2024-05-09T03:07:31.430Z,6.17
2024-05-09T03:10:25.593Z,6.12
2024-05-09T03:13:17.987Z,6.07
2024-05-09T03:16:04.810Z,6.04
2024-05-09T03:18:54.766Z,5.96
2024-05-09T03:21:41.462Z,5.90
2024-05-09T03:24:33.588Z,5.86
2024-05-09T03:27:20.418Z,5.85
2024-05-09T03:30:15.468Z,5.84
2024-05-09T03:33:05.995Z,5.80
2024-05-09T03:35:55.266Z,5.79
2024-05-09T03:38:44.562Z,5.76
2024-05-09T03:41:36.341Z,5.73
2024-05-09T03:44:25.946Z,5.74
2024-05-09T03:47:13.000Z,5.72
2024-05-09T03:50:03.288Z,5.71
2024-05-09T03:52:51.086Z,5.68
2024-05-09T03:55:40.531Z,5.66
2024-05-09T03:58:29.665Z,5.66
2024-05-09T04:01:18.789Z,5.66
2024-05-09T04:04:05.910Z,5.66
2024-05-09T04:06:57.716Z,5.67
2024-05-09T04:09:44.160Z,5.66
2024-05-09T04:12:33.668Z,5.65
2024-05-09T04:15:22.922Z,5.65
2024-05-09T04:18:12.800Z,5.63
2024-05-09T04:20:59.666Z,5.62
2024-05-09T04:23:48.826Z,5.62
2024-05-09T04:26:35.772Z,5.61
2024-05-09T04:29:25.018Z,5.61
2024-05-09T04:32:16.977Z,5.63
2024-05-09T04:35:04.380Z,5.65
2024-05-09T04:37:53.703Z,5.65
2024-05-09T04:40:40.396Z,5.67
2024-05-09T04:43:29.640Z,5.70
2024-05-09T04:46:16.443Z,5.73
2024-05-09T04:49:08.381Z,5.80
2024-05-09T04:51:55.051Z,5.84
2024-05-09T04:54:44.292Z,5.87
2024-05-09T04:57:31.363Z,5.92
2024-05-09T05:00:28.923Z,5.95
2024-05-09T05:03:22.245Z,6.03
2024-05-09T05:06:14.276Z,6.06
2024-05-09T05:09:00.954Z,6.11
2024-05-09T05:11:50.875Z,6.18
2024-05-09T05:14:38.007Z,6.22
2024-05-09T05:17:27.761Z,6.29
2024-05-09T05:20:18.005Z,6.32
2024-05-09T05:23:19.083Z,6.40
2024-05-09T05:26:06.480Z,6.48
2024-05-09T05:28:56.004Z,6.54
2024-05-09T05:31:42.594Z,6.62
2024-05-09T05:34:31.858Z,6.71
2024-05-09T05:37:21.079Z,6.80
2024-05-09T05:40:14.665Z,6.89
2024-05-09T05:43:07.428Z,6.99
2024-05-09T05:45:56.929Z,7.12
2024-05-09T05:48:43.337Z,7.23
2024-05-09T05:51:32.402Z,7.30
2024-05-09T05:54:19.170Z,7.43
2024-05-09T05:57:11.366Z,7.53
2024-05-09T05:59:58.136Z,7.68
2024-05-09T06:02:47.329Z,7.83
2024-05-09T06:05:35.269Z,7.92
2024-05-09T06:08:30.299Z,8.04
2024-05-09T06:11:17.215Z,8.19
2024-05-09T06:14:09.428Z,8.37
2024-05-09T06:16:58.196Z,8.55
2024-05-09T06:19:47.710Z,8.71
2024-05-09T06:22:34.254Z,8.83
2024-05-09T06:25:23.552Z,9.01
2024-05-09T06:28:10.589Z,9.15
2024-05-09T06:31:04.954Z,9.29
2024-05-09T06:33:54.503Z,9.44
2024-05-09T06:36:41.435Z,9.58
2024-05-09T06:39:30.818Z,9.75
2024-05-09T06:42:17.684Z,9.89
2024-05-09T06:45:07.985Z,10.02
2024-05-09T06:47:57.340Z,10.12
2024-05-09T06:50:47.210Z,10.35
2024-05-09T06:53:33.696Z,10.54
2024-05-09T06:56:23.508Z,10.75
2024-05-09T06:59:10.608Z,10.99
2024-05-09T07:02:00.012Z,11.20
2024-05-09T07:04:49.654Z,11.42
2024-05-09T07:07:38.869Z,11.65
2024-05-09T07:10:29.061Z,11.90
2024-05-09T07:13:23.622Z,12.11
2024-05-09T07:16:13.964Z,12.34
2024-05-09T07:19:00.593Z,12.63
2024-05-09T07:21:53.065Z,12.86
2024-05-09T07:24:39.909Z,13.09
2024-05-09T07:27:29.511Z,13.37
2024-05-09T07:30:27.418Z,13.63
2024-05-09T07:33:24.723Z,13.93
2024-05-09T07:36:11.650Z,14.20
2024-05-09T07:39:05.411Z,14.48
2024-05-09T07:41:52.182Z,14.71
2024-05-09T07:44:41.665Z,14.95
2024-05-09T07:48:57.168Z,15.19
2024-05-09T07:53:40.056Z,15.74
2024-05-09T07:56:36.769Z,16.04
2024-05-09T07:59:23.711Z,16.28
2024-05-09T08:02:13.476Z,16.55
2024-05-09T08:05:00.810Z,16.75
2024-05-09T08:07:53.204Z,16.98
2024-05-09T08:10:40.044Z,17.19
2024-05-09T08:13:34.513Z,17.40
2024-05-09T08:16:21.247Z,17.67
2024-05-09T08:19:11.076Z,17.93
2024-05-09T08:21:58.038Z,18.25
2024-05-09T08:24:47.600Z,18.55
2024-05-09T08:27:34.325Z,18.87
2024-05-09T08:30:33.396Z,19.15
2024-05-09T08:33:23.978Z,19.40
2024-05-09T08:36:13.586Z,19.60
2024-05-09T08:39:02.802Z,19.85
2024-05-09T08:41:58.155Z,20.12
2024-05-09T08:44:50.314Z,20.33
2024-05-09T08:47:39.690Z,20.58
2024-05-09T08:50:36.325Z,20.83
2024-05-09T08:53:26.016Z,20.82
2024-05-09T08:56:16.244Z,21.06
2024-05-09T08:59:09.041Z,21.48
2024-05-09T09:01:58.693Z,21.69
2024-05-09T09:05:00.862Z,21.91
2024-05-09T09:07:51.774Z,21.86
2024-05-09T09:10:43.158Z,21.99
2024-05-09T09:13:32.571Z,22.28
2024-05-09T09:16:19.159Z,22.40
2024-05-09T09:19:08.950Z,22.56
2024-05-09T09:21:58.770Z,22.91
2024-05-09T09:24:48.714Z,23.23
2024-05-09T09:27:35.635Z,23.31
2024-05-09T09:30:34.690Z,23.44
2024-05-09T09:33:24.249Z,23.51
2024-05-09T09:36:14.464Z,23.67
2024-05-09T09:39:14.512Z,23.82
2024-05-09T09:42:04.739Z,24.13
2024-05-09T09:45:02.086Z,23.90
2024-05-09T09:47:59.960Z,23.58
2024-05-09T09:50:51.408Z,23.50
2024-05-09T09:53:42.490Z,24.02
2024-05-09T09:56:33.907Z,24.35
2024-05-09T09:59:25.392Z,24.40
2024-05-09T10:02:13.918Z,24.34
2024-05-09T10:05:06.078Z,24.69
2024-05-09T10:07:53.829Z,25.01
2024-05-09T10:10:43.684Z,25.01
2024-05-09T10:13:36.896Z,24.81
2024-05-09T10:16:27.579Z,25.00
2024-05-09T10:19:30.822Z,25.41
2024-05-09T10:22:32.297Z,25.68
2024-05-09T10:25:22.021Z,25.58
2024-05-09T10:28:15.330Z,25.50
2024-05-09T10:31:13.064Z,25.57
2024-05-09T10:34:05.441Z,25.82
2024-05-09T10:36:53.986Z,25.81
2024-05-09T10:39:44.111Z,25.45
2024-05-09T10:42:32.708Z,25.57
2024-05-09T10:45:22.284Z,26.06
2024-05-09T10:48:12.596Z,26.48
2024-05-09T10:51:02.066Z,26.66
2024-05-09T10:53:49.461Z,26.33
2024-05-09T10:56:38.755Z,26.34
2024-05-09T10:59:25.426Z,26.67
2024-05-09T11:02:15.384Z,26.77
2024-05-09T11:05:06.253Z,26.87
2024-05-09T11:07:55.762Z,26.94
2024-05-09T11:10:44.971Z,26.59
2024-05-09T11:13:37.187Z,26.79
2024-05-09T11:16:28.266Z,27.28
2024-05-09T11:19:19.737Z,27.45
2024-05-09T11:22:09.523Z,27.45
2024-05-09T11:24:59.044Z,27.42
2024-05-09T11:27:45.967Z,27.48
2024-05-09T11:30:36.047Z,27.41
2024-05-09T11:33:23.079Z,27.20
2024-05-09T11:36:13.456Z,27.45
2024-05-09T11:39:03.061Z,27.07
2024-05-09T11:41:52.333Z,27.27
2024-05-09T11:44:39.310Z,27.86
2024-05-09T11:47:28.654Z,28.16
2024-05-09T11:50:22.614Z,28.01
2024-05-09T11:53:18.670Z,28.10
2024-05-09T11:56:08.370Z,27.74
2024-05-09T11:58:57.802Z,28.04
2024-05-09T12:01:44.588Z,28.10
2024-05-09T12:04:34.439Z,28.09
2024-05-09T12:07:22.053Z,27.71
2024-05-09T12:10:16.791Z,27.69
2024-05-09T12:13:09.428Z,27.56
2024-05-09T12:15:58.691Z,27.60
2024-05-09T12:18:45.481Z,28.13
2024-05-09T12:21:35.957Z,28.27
2024-05-09T12:24:25.274Z,28.52
2024-05-09T12:27:15.200Z,28.57
2024-05-09T12:30:07.242Z,28.57
2024-05-09T12:32:58.656Z,28.71
2024-05-09T12:35:47.416Z,28.78
2024-05-09T12:38:38.410Z,29.03
2024-05-09T12:41:28.846Z,28.81
2024-05-09T12:44:15.739Z,28.61
2024-05-09T12:47:08.415Z,29.03
2024-05-09T12:49:55.113Z,28.95
2024-05-09T12:52:44.307Z,29.16
2024-05-09T12:55:37.306Z,29.18
2024-05-09T12:58:34.394Z,29.26
2024-05-09T13:01:23.839Z,29.42
2024-05-09T13:04:13.587Z,29.56
2024-05-09T13:07:05.624Z,29.50
2024-05-09T13:09:53.956Z,29.28
2024-05-09T13:12:43.239Z,29.34
2024-05-09T13:15:34.783Z,29.40
2024-05-09T13:18:24.059Z,29.32
2024-05-09T13:21:13.575Z,29.69
2024-05-09T13:24:03.201Z,29.90
2024-05-09T13:26:50.226Z,29.86
2024-05-09T13:29:42.692Z,29.19
2024-05-09T13:32:30.897Z,28.69
2024-05-09T13:35:20.220Z,28.90
2024-05-09T13:38:09.614Z,29.04
2024-05-09T13:40:58.964Z,28.65
2024-05-09T13:43:54.556Z,28.64
2024-05-09T13:46:41.359Z,28.91
2024-05-09T13:49:30.772Z,29.07
2024-05-09T13:52:17.371Z,29.01
2024-05-09T13:55:10.917Z,29.01
2024-05-09T13:57:58.044Z,29.14
2024-05-09T14:00:49.377Z,29.18
2024-05-09T14:03:36.501Z,29.07
2024-05-09T14:06:26.151Z,29.08
2024-05-09T14:09:12.969Z,29.09
2024-05-09T14:12:04.680Z,28.95
2024-05-09T14:14:51.570Z,29.10
2024-05-09T14:17:41.116Z,29.13
2024-05-09T14:20:31.346Z,29.17
2024-05-09T14:23:22.417Z,29.15
2024-05-09T14:26:09.417Z,29.17
2024-05-09T14:29:01.320Z,29.54
2024-05-09T14:31:48.395Z,29.68
2024-05-09T14:34:37.480Z,29.97
2024-05-09T14:37:24.366Z,30.02
2024-05-09T14:40:30.616Z,30.04
2024-05-09T14:43:26.506Z,30.18
2024-05-09T14:46:15.854Z,30.00
2024-05-09T14:49:06.057Z,29.63
2024-05-09T14:51:53.931Z,29.37
2024-05-09T14:54:43.416Z,29.43
2024-05-09T14:57:30.546Z,29.33
2024-05-09T15:00:26.324Z,29.62
2024-05-09T15:03:22.869Z,29.69
2024-05-09T15:06:13.407Z,29.78
2024-05-09T15:09:01.813Z,29.95
2024-05-09T15:11:50.944Z,30.15
2024-05-09T15:14:37.661Z,30.28
2024-05-09T15:17:26.705Z,30.36
2024-05-09T15:20:20.234Z,30.37
2024-05-09T15:23:13.301Z,30.14
2024-05-09T15:25:59.870Z,30.20
2024-05-09T15:28:48.913Z,30.28
2024-05-09T15:31:35.402Z,30.55
2024-05-09T15:34:25.911Z,30.79
2024-05-09T15:37:15.464Z,30.77
2024-05-09T15:40:07.507Z,30.52
2024-05-09T15:42:57.103Z,30.53
2024-05-09T15:45:46.199Z,30.47
2024-05-09T15:48:33.413Z,30.62
2024-05-09T15:51:22.581Z,30.42
2024-05-09T15:54:12.668Z,30.35
2024-05-09T15:57:02.315Z,30.33
2024-05-09T15:59:49.104Z,30.14
2024-05-09T16:02:39.099Z,30.15
2024-05-09T16:05:26.137Z,30.33
2024-05-09T16:08:16.422Z,30.32
2024-05-09T16:11:06.353Z,30.32
2024-05-09T16:13:55.811Z,30.45
2024-05-09T16:16:42.715Z,30.64
2024-05-09T16:19:32.213Z,30.79
2024-05-09T16:22:18.809Z,30.58
2024-05-09T16:25:09.510Z,30.29
2024-05-09T16:27:59.081Z,30.01
2024-05-09T16:30:48.734Z,29.92
2024-05-09T16:33:35.950Z,29.78
2024-05-09T16:36:25.483Z,29.65
2024-05-09T16:39:11.746Z,29.40
2024-05-09T16:42:00.997Z,29.32
2024-05-09T16:44:51.031Z,29.31
2024-05-09T16:47:40.646Z,29.18
2024-05-09T16:50:32.567Z,29.13
2024-05-09T16:53:25.647Z,28.81
2024-05-09T16:56:13.411Z,28.66
2024-05-09T16:59:03.070Z,28.35
2024-05-09T17:01:52.410Z,28.17
2024-05-09T17:04:43.111Z,27.93
2024-05-09T17:07:30.165Z,27.65
2024-05-09T17:10:29.128Z,27.10
2024-05-09T17:13:22.630Z,26.62
2024-05-09T17:16:13.552Z,26.23
2024-05-09T17:19:05.435Z,25.92
2024-05-09T17:21:52.230Z,25.66
2024-05-09T17:24:41.528Z,25.40
2024-05-09T17:27:28.825Z,25.00
2024-05-09T17:30:28.825Z,24.77
2024-05-09T17:33:21.157Z,24.41
2024-05-09T17:36:13.349Z,24.16
2024-05-09T17:38:59.643Z,23.96
2024-05-09T17:41:49.349Z,23.71
2024-05-09T17:44:36.072Z,23.40
2024-05-09T17:47:25.586Z,23.06
2024-05-09T17:50:21.206Z,22.74
2024-05-09T17:53:20.111Z,22.50
2024-05-09T17:56:08.448Z,22.27
2024-05-09T17:58:57.873Z,22.02
2024-05-09T18:01:47.338Z,21.82
2024-05-09T18:04:34.154Z,21.57
2024-05-09T18:07:23.949Z,21.34
2024-05-09T18:10:21.930Z,21.07
2024-05-09T18:13:15.838Z,20.91
2024-05-09T18:16:02.729Z,20.72
2024-05-09T18:18:52.217Z,20.55
2024-05-09T18:21:38.867Z,20.33
2024-05-09T18:24:28.087Z,20.13
2024-05-09T18:27:17.783Z,19.92
2024-05-09T18:30:09.575Z,19.76
2024-05-09T18:33:00.794Z,19.56
2024-05-09T18:35:50.278Z,19.37
2024-05-09T18:38:37.173Z,19.18
2024-05-09T18:41:26.788Z,19.02
2024-05-09T18:44:18.654Z,18.88
2024-05-09T18:47:06.044Z,18.74
2024-05-09T18:49:55.323Z,18.57
2024-05-09T18:52:41.770Z,18.39
2024-05-09T18:55:30.985Z,18.24
2024-05-09T18:58:18.802Z,18.12
2024-05-09T19:01:11.240Z,17.99
2024-05-09T19:03:58.238Z,17.85
2024-05-09T19:06:47.753Z,17.67
2024-05-09T19:09:35.316Z,17.45
2024-05-09T19:12:24.624Z,17.24
2024-05-09T19:15:11.365Z,17.04
2024-05-09T19:18:03.669Z,16.88
2024-05-09T19:20:50.471Z,16.75
2024-05-09T19:23:46.982Z,16.65
2024-05-09T19:26:38.295Z,16.50
2024-05-09T19:29:27.706Z,16.34
2024-05-09T19:32:16.801Z,16.20
2024-05-09T19:35:07.053Z,16.08
2024-05-09T19:37:56.679Z,16.00
2024-05-09T19:40:43.316Z,15.95
2024-05-09T19:43:35.883Z,15.89
2024-05-09T19:46:23.633Z,15.80
2024-05-09T19:49:13.240Z,15.65
2024-05-09T19:52:02.648Z,15.52
2024-05-09T19:54:52.116Z,15.40
2024-05-09T19:57:38.965Z,15.26
2024-05-09T20:00:34.680Z,15.12
2024-05-09T20:03:23.033Z,15.01
2024-05-09T20:06:12.220Z,14.87
2024-05-09T20:09:01.641Z,14.71
2024-05-09T20:11:50.822Z,14.61
2024-05-09T20:14:37.613Z,14.50
2024-05-09T20:17:27.083Z,14.35
2024-05-09T20:20:23.966Z,14.26
2024-05-09T20:23:21.330Z,14.22
2024-05-09T20:26:11.237Z,14.14
2024-05-09T20:29:00.214Z,14.04
2024-05-09T20:31:46.666Z,13.96
2024-05-09T20:34:35.915Z,13.85
2024-05-09T20:37:23.131Z,13.75
2024-05-09T20:40:21.203Z,13.67
2024-05-09T20:43:21.308Z,13.64
2024-05-09T20:46:08.275Z,13.56
2024-05-09T20:48:58.261Z,13.44
2024-05-09T20:51:44.836Z,13.32
2024-05-09T20:54:34.484Z,13.24
2024-05-09T20:57:21.110Z,13.18
2024-05-09T21:00:18.736Z,13.07
2024-05-09T21:03:08.734Z,12.94
2024-05-09T21:05:57.894Z,12.90
2024-05-09T21:08:44.922Z,12.79
2024-05-09T21:11:33.961Z,12.69
2024-05-09T21:14:20.520Z,12.61
2024-05-09T21:17:12.775Z,12.60
2024-05-09T21:19:59.842Z,12.57
2024-05-09T21:22:49.105Z,12.55
2024-05-09T21:25:35.502Z,12.51
2024-05-09T21:28:24.936Z,12.48
2024-05-09T21:31:12.158Z,12.48
2024-05-09T21:34:04.042Z,12.43
2024-05-09T21:36:51.804Z,12.39
2024-05-09T21:39:41.001Z,12.33
2024-05-09T21:42:27.654Z,12.30
2024-05-09T21:45:19.482Z,12.25
2024-05-09T21:48:08.197Z,12.15
2024-05-09T21:51:00.168Z,12.12
2024-05-09T21:53:47.105Z,12.07
2024-05-09T21:56:38.188Z,12.02
2024-05-09T21:59:25.166Z,11.94
2024-05-09T22:02:15.063Z,11.91
2024-05-09T22:05:02.215Z,11.86
2024-05-09T22:07:54.470Z,11.83
2024-05-09T22:10:41.179Z,11.80
2024-05-09T22:13:30.897Z,11.78
2024-05-09T22:16:17.976Z,11.75
2024-05-09T22:19:07.187Z,11.71
2024-05-09T22:21:55.530Z,11.69
2024-05-09T22:24:47.644Z,11.69
2024-05-09T22:27:34.544Z,11.67
2024-05-09T22:30:31.188Z,11.66
2024-05-09T22:33:21.858Z,11.63
2024-05-09T22:36:11.638Z,11.62
2024-05-09T22:38:57.941Z,11.58
2024-05-09T22:41:49.904Z,11.57
2024-05-09T22:44:36.697Z,11.56
2024-05-09T22:47:25.907Z,11.55
2024-05-09T22:50:16.256Z,11.51
2024-05-09T22:53:11.514Z,11.50
2024-05-09T22:55:58.000Z,11.51
2024-05-09T22:58:49.954Z,11.45
2024-05-09T23:01:40.359Z,11.41
2024-05-09T23:04:29.484Z,11.37
2024-05-09T23:07:16.827Z,11.34
2024-05-09T23:10:13.150Z,11.30
2024-05-09T23:13:06.967Z,11.18
2024-05-09T23:15:56.874Z,11.14
2024-05-09T23:18:46.483Z,11.07
2024-05-09T23:21:33.318Z,11.02
2024-05-09T23:24:22.806Z,10.95
2024-05-09T23:27:09.388Z,10.83
2024-05-09T23:29:58.685Z,10.77
2024-05-09T23:32:48.052Z,10.69
2024-05-09T23:35:37.566Z,10.67
2024-05-09T23:38:24.722Z,10.61
2024-05-09T23:41:14.238Z,10.58
2024-05-09T23:44:00.802Z,10.53
2024-05-09T23:46:50.262Z,10.49
2024-05-09T23:49:39.877Z,10.46
2024-05-09T23:52:28.948Z,10.40
2024-05-09T23:55:15.817Z,10.35
2024-05-09T23:58:05.454Z,10.30
